createdAt,value
2018-11-28T00:02:56.370Z,100576.44
2018-11-28T00:07:00.051Z,100581.12
2018-11-28T00:11:03.618Z,100574.70
2018-11-28T00:15:08.453Z,100584.17
2018-11-28T00:19:12.052Z,100596.23
2018-11-28T00:23:15.615Z,100598.23
2018-11-28T00:27:19.144Z,100597.26
2018-11-28T00:31:22.707Z,100604.52
2018-11-28T00:35:26.265Z,100600.82
2018-11-28T00:39:29.919Z,100610.20
2018-11-28T00:43:33.415Z,100619.49
2018-11-28T00:47:36.907Z,100622.63
2018-11-28T00:51:40.787Z,100629.33
2018-11-28T00:55:48.457Z,100633.41
2018-11-28T00:59:47.811Z,100647.86
2018-11-28T01:03:51.417Z,100639.53
2018-11-28T01:07:55.796Z,100643.41
2018-11-28T01:11:59.248Z,100653.58
2018-11-28T01:16:05.020Z,100650.33
2018-11-28T01:20:10.831Z,100655.50
2018-11-28T01:24:14.315Z,100658.66
2018-11-28T01:28:17.848Z,100653.39
2018-11-28T01:32:21.331Z,100649.12
2018-11-28T01:36:24.836Z,100651.53
2018-11-28T01:40:28.364Z,100665.16
2018-11-28T01:44:31.937Z,100667.06
2018-11-28T01:48:35.451Z,100663.59
2018-11-28T01:52:39.082Z,100654.53
2018-11-28T01:56:42.535Z,100653.23
2018-11-28T02:00:45.976Z,100663.59
2018-11-28T02:04:49.525Z,100671.41
2018-11-28T02:08:53.455Z,100675.89
2018-11-28T02:12:56.968Z,100662.95
2018-11-28T02:17:00.748Z,100679.55
2018-11-28T02:21:04.329Z,100674.16
2018-11-28T02:25:09.340Z,100675.14
2018-11-28T02:29:14.192Z,100683.09
2018-11-28T02:33:17.685Z,100681.80
2018-11-28T02:37:21.235Z,100684.16
2018-11-28T02:41:24.793Z,100699.38
2018-11-28T02:45:28.273Z,100696.41
2018-11-28T02:49:31.792Z,100706.93
2018-11-28T02:53:35.410Z,100715.20
2018-11-28T02:57:39.159Z,100711.31
2018-11-28T03:01:42.639Z,100719.75
2018-11-28T03:05:46.277Z,100733.61
2018-11-28T03:09:49.803Z,100736.58
2018-11-28T03:13:53.326Z,100742.17
2018-11-28T03:17:56.837Z,100740.97
2018-11-28T03:22:00.330Z,100739.98
2018-11-28T03:26:03.904Z,100746.78
2018-11-28T03:30:12.206Z,100745.48
2018-11-28T03:34:15.658Z,100743.59
2018-11-28T03:38:19.233Z,100751.86
2018-11-28T03:42:22.828Z,100760.00
2018-11-28T03:46:26.351Z,100761.81
2018-11-28T03:50:29.845Z,100764.80
2018-11-28T03:54:33.371Z,100764.39
2018-11-28T03:58:36.955Z,100765.38
2018-11-28T04:02:40.498Z,100769.89
2018-11-28T04:06:44.109Z,100763.00
2018-11-28T04:10:47.647Z,100767.77
2018-11-28T04:14:51.185Z,100780.25
2018-11-28T04:18:54.715Z,100767.62
2018-11-28T04:22:58.334Z,100777.66
2018-11-28T04:27:01.877Z,100782.94
2018-11-28T04:31:05.950Z,100789.50
2018-11-28T04:35:10.872Z,100782.02
2018-11-28T04:39:14.445Z,100791.08
2018-11-28T04:43:18.040Z,100803.55
2018-11-28T04:47:21.624Z,100802.73
2018-11-28T04:51:25.127Z,100793.19
2018-11-28T04:55:28.671Z,100796.56
2018-11-28T04:59:32.345Z,100799.56
2018-11-28T05:03:37.016Z,100802.47
2018-11-28T05:07:39.888Z,100811.44
2018-11-28T05:11:43.463Z,100814.81
2018-11-28T05:15:47.017Z,100814.02
2018-11-28T05:19:50.579Z,100823.09
2018-11-28T05:23:54.114Z,100813.52
2018-11-28T05:27:58.759Z,100827.28
2018-11-28T05:32:02.374Z,100830.94
2018-11-28T05:36:06.092Z,100834.23
2018-11-28T05:40:29.891Z,100833.44
2018-11-28T05:44:33.476Z,100844.89
2018-11-28T05:48:37.033Z,100856.03
2018-11-28T05:52:40.591Z,100859.44
2018-11-28T05:56:44.081Z,100860.23
2018-11-28T06:00:47.603Z,100867.21
2018-11-28T06:04:51.088Z,100856.86
2018-11-28T06:08:54.656Z,100863.23
2018-11-28T06:12:58.251Z,100866.60
2018-11-28T06:17:01.705Z,100865.41
2018-11-28T06:21:05.633Z,100876.07
2018-11-28T06:25:15.953Z,100883.94
2018-11-28T06:29:14.503Z,100882.64
2018-11-28T06:33:18.162Z,100893.58
2018-11-28T06:37:21.771Z,100900.05
2018-11-28T06:41:25.232Z,100902.63
2018-11-28T06:45:28.771Z,100906.83
2018-11-28T06:49:32.288Z,100914.90
2018-11-28T06:53:36.016Z,100923.17
2018-11-28T06:57:39.608Z,100923.48
2018-11-28T07:01:43.198Z,100930.12
2018-11-28T07:05:46.700Z,100937.20
2018-11-28T07:09:50.367Z,100933.22
2018-11-28T07:13:53.907Z,100942.86
2018-11-28T07:18:07.343Z,100950.83
2018-11-28T07:22:10.845Z,100951.14
2018-11-28T07:26:14.398Z,100951.34
2018-11-28T07:30:20.166Z,100947.93
2018-11-28T07:34:23.723Z,100961.70
2018-11-28T07:38:27.248Z,100974.53
2018-11-28T07:42:30.786Z,100986.26
2018-11-28T07:46:34.386Z,100986.05
2018-11-28T07:50:37.964Z,100976.61
2018-11-28T07:54:41.505Z,100974.70
2018-11-28T07:58:44.992Z,100976.70
2018-11-28T08:11:39.465Z,100986.75
2018-11-28T08:15:43.056Z,100986.64
2018-11-28T08:19:46.650Z,100987.31
2018-11-28T08:23:50.601Z,100990.58
2018-11-28T08:27:54.213Z,100995.86
2018-11-28T08:31:57.849Z,100994.66
2018-11-28T08:36:01.412Z,100993.47
2018-11-28T08:40:06.551Z,100988.07
2018-11-28T08:44:10.191Z,100999.93
2018-11-28T08:48:18.030Z,100999.11
2018-11-28T08:52:21.620Z,101007.59
2018-11-28T08:56:26.144Z,101008.16
2018-11-28T09:00:29.722Z,101012.34
2018-11-28T09:04:33.262Z,101019.39
2018-11-28T09:08:36.934Z,101018.06
2018-11-28T09:12:40.518Z,101034.70
2018-11-28T09:16:44.120Z,101027.13
2018-11-28T09:20:47.733Z,101030.89
2018-11-28T09:24:51.196Z,101026.38
2018-11-28T09:28:55.673Z,101033.56
2018-11-28T09:32:59.255Z,101027.84
2018-11-28T09:37:02.897Z,101024.42
2018-11-28T09:41:06.508Z,101020.50
2018-11-28T09:45:14.372Z,101010.31
2018-11-28T09:49:18.014Z,101018.86
2018-11-28T09:53:21.538Z,101016.87
2018-11-28T09:57:25.175Z,101018.83
2018-11-28T10:01:28.829Z,101018.83
2018-11-28T10:05:34.545Z,101016.20
2018-11-28T10:09:38.155Z,101018.44
2018-11-28T10:13:41.781Z,101016.21
2018-11-28T10:17:45.563Z,101015.58
2018-11-28T10:21:49.033Z,101008.06
2018-11-28T10:25:52.560Z,101012.71
2018-11-28T10:29:56.115Z,101010.67
2018-11-28T10:33:59.660Z,101003.81
2018-11-28T10:38:05.001Z,100999.55
2018-11-28T10:42:08.511Z,101003.72
2018-11-28T10:46:12.124Z,101009.51
2018-11-28T10:50:16.040Z,101003.46
2018-11-28T10:54:19.610Z,101005.77
2018-11-28T10:58:23.161Z,101001.22
2018-11-28T11:02:31.991Z,101003.98
2018-11-28T11:07:42.369Z,100996.69
2018-11-28T11:11:51.401Z,101004.25
2018-11-28T11:15:59.458Z,101002.14
2018-11-28T11:20:03.209Z,100995.90
2018-11-28T11:24:06.793Z,101003.21
2018-11-28T11:28:10.271Z,100998.98
2018-11-28T11:32:13.884Z,101003.23
2018-11-28T11:36:17.501Z,101004.04
2018-11-28T11:40:21.220Z,100999.97
2018-11-28T11:44:24.754Z,100996.80
2018-11-28T11:48:28.344Z,100997.84
2018-11-28T11:52:32.143Z,100995.66
2018-11-28T11:56:35.632Z,100991.92
2018-11-28T12:00:42.299Z,100994.28
2018-11-28T12:04:45.950Z,100988.83
2018-11-28T12:08:49.767Z,100998.44
2018-11-28T12:12:53.261Z,100994.83
2018-11-28T12:16:57.208Z,100994.45
2018-11-28T12:21:02.903Z,100999.32
2018-11-28T12:25:07.138Z,100997.52
2018-11-28T12:29:14.110Z,100996.72
2018-11-28T12:33:26.112Z,101003.06
2018-11-28T12:42:08.049Z,101001.42
2018-11-28T12:46:20.993Z,101009.78
2018-11-28T12:50:26.804Z,101014.98
2018-11-28T12:54:30.312Z,101002.89
2018-11-28T12:58:34.152Z,101002.84
2018-11-28T13:02:37.702Z,101003.98
2018-11-28T13:06:41.209Z,101008.38
2018-11-28T13:10:46.540Z,101015.05
2018-11-28T13:14:50.134Z,101006.33
2018-11-28T13:18:53.743Z,101005.70
2018-11-28T13:22:58.536Z,101008.72
2018-11-28T13:27:02.419Z,101008.72
2018-11-28T13:31:06.083Z,101009.52
2018-11-28T13:35:09.812Z,101011.32
2018-11-28T13:39:13.724Z,101010.81
2018-11-28T13:43:17.384Z,101005.44
2018-11-28T13:47:55.593Z,101020.64
2018-11-28T13:52:03.601Z,101013.08
2018-11-28T14:00:10.946Z,101020.73
2018-11-28T14:04:14.513Z,101021.86
2018-11-28T14:08:19.760Z,101024.96
2018-11-28T14:12:25.625Z,101023.48
2018-11-28T14:16:29.104Z,101027.94
2018-11-28T14:20:32.612Z,101027.60
2018-11-28T14:24:36.061Z,101028.36
2018-11-28T14:28:39.876Z,101029.16
2018-11-28T14:32:44.883Z,101032.86
2018-11-28T14:36:51.446Z,101038.70
2018-11-28T14:40:54.938Z,101035.19
2018-11-28T14:44:59.439Z,101037.47
2018-11-28T14:49:03.201Z,101043.53
2018-11-28T14:53:07.242Z,101041.09
2018-11-28T14:57:10.881Z,101044.36
2018-11-28T15:01:14.586Z,101047.13
2018-11-28T15:07:32.747Z,101039.23
2018-11-28T15:11:46.297Z,101042.32
2018-11-28T15:15:49.950Z,101058.03
2018-11-28T15:19:53.626Z,101055.34
2018-11-28T15:23:57.560Z,101060.21
2018-11-28T15:28:43.098Z,101060.05
2018-11-28T15:32:46.695Z,101067.54
2018-11-28T15:36:50.227Z,101074.95
2018-11-28T15:40:54.205Z,101074.09
2018-11-28T15:44:57.756Z,101079.06
2018-11-28T15:49:03.214Z,101087.91
2018-11-28T15:53:07.094Z,101095.86
2018-11-28T15:57:10.711Z,101097.45
2018-11-28T16:01:14.542Z,101106.70
2018-11-28T16:05:18.179Z,101104.98
2018-11-28T16:09:27.521Z,101119.05
2018-11-28T16:13:31.126Z,101120.40
2018-11-28T16:17:34.708Z,101118.95
2018-11-28T16:21:38.411Z,101127.20
2018-11-28T16:25:42.015Z,101134.81
2018-11-28T16:29:45.638Z,101133.05
2018-11-28T16:33:49.349Z,101145.88
2018-11-28T16:37:52.810Z,101149.08
2018-11-28T16:41:56.397Z,101150.41
2018-11-28T16:46:00.027Z,101159.95
2018-11-28T16:50:03.658Z,101158.46
2018-11-28T16:54:07.349Z,101163.30
2018-11-28T16:58:10.884Z,101164.62
2018-11-28T17:02:14.561Z,101168.64
2018-11-28T17:06:18.108Z,101168.26
2018-11-28T17:10:26.076Z,101166.91
2018-11-28T17:14:29.854Z,101172.76
2018-11-28T17:18:33.570Z,101170.70
2018-11-28T17:22:37.074Z,101177.16
2018-11-28T17:26:40.737Z,101175.47
2018-11-28T17:34:47.550Z,101184.12
2018-11-28T17:38:51.151Z,101187.91
2018-11-28T17:42:56.127Z,101186.00
2018-11-28T17:46:59.653Z,101195.81
2018-11-28T17:51:03.420Z,101198.41
2018-11-28T17:55:11.550Z,101202.09
2018-11-28T17:59:16.167Z,101206.98
2018-11-28T18:03:22.283Z,101204.50
2018-11-28T18:07:26.463Z,101208.81
2018-11-28T18:11:30.320Z,101217.20
2018-11-28T18:15:35.280Z,101216.59
2018-11-28T18:19:38.920Z,101216.91
2018-11-28T18:23:43.446Z,101222.30
2018-11-28T18:27:47.167Z,101222.81
2018-11-28T18:31:50.908Z,101222.60
2018-11-28T18:35:54.502Z,101226.59
2018-11-28T18:39:58.848Z,101237.48
2018-11-28T18:44:01.871Z,101245.44
2018-11-28T18:48:05.606Z,101252.42
2018-11-28T18:52:09.325Z,101250.21
2018-11-28T18:56:12.864Z,101247.55
2018-11-28T19:00:22.337Z,101251.44
2018-11-28T19:04:26.152Z,101254.30
2018-11-28T19:08:30.312Z,101244.85
2018-11-28T19:12:34.264Z,101251.03
2018-11-28T19:16:38.956Z,101255.70
2018-11-28T19:20:42.589Z,101264.20
2018-11-28T19:24:46.360Z,101264.48
2018-11-28T19:28:50.455Z,101265.50
2018-11-28T19:32:54.077Z,101263.59
2018-11-28T19:36:57.923Z,101272.29
2018-11-28T19:41:04.296Z,101268.70
2018-11-28T19:45:09.546Z,101271.50
2018-11-28T19:49:13.394Z,101277.98
2018-11-28T19:53:16.960Z,101278.77
2018-11-28T19:57:20.768Z,101279.28
2018-11-28T20:01:24.623Z,101287.84
2018-11-28T20:05:28.594Z,101295.41
2018-11-28T20:09:34.460Z,101293.91
2018-11-28T20:13:39.276Z,101295.91
2018-11-28T20:17:44.513Z,101294.81
2018-11-28T20:21:56.084Z,101297.20
2018-11-28T20:26:00.072Z,101297.59
2018-11-28T20:30:05.311Z,101298.19
2018-11-28T20:34:15.620Z,101293.58
2018-11-28T20:38:27.612Z,101293.37
2018-11-28T20:42:36.669Z,101296.56
2018-11-28T20:46:51.320Z,101303.04
2018-11-28T20:55:28.183Z,101292.89
2018-11-28T20:59:38.158Z,101295.85
2018-11-28T21:03:36.943Z,101294.27
2018-11-28T21:07:41.629Z,101296.23
2018-11-28T21:11:45.447Z,101295.76
2018-11-28T21:15:49.030Z,101308.58
2018-11-28T21:19:52.626Z,101304.27
2018-11-28T21:23:56.306Z,101308.08
2018-11-28T21:28:00.082Z,101317.70
2018-11-28T21:32:03.584Z,101326.30
2018-11-28T21:36:07.694Z,101319.41
2018-11-28T21:40:11.784Z,101324.78
2018-11-28T21:44:15.692Z,101314.50
2018-11-28T21:48:20.632Z,101302.84
2018-11-28T21:52:25.504Z,101309.72
2018-11-28T21:56:29.163Z,101321.75
2018-11-28T22:00:32.733Z,101314.47
2018-11-28T22:04:36.259Z,101315.65
2018-11-28T22:08:39.878Z,101317.76
2018-11-28T22:12:43.739Z,101317.42
2018-11-28T22:16:47.379Z,101317.61
2018-11-28T22:20:50.988Z,101323.45
2018-11-28T22:24:54.632Z,101316.69
2018-11-28T22:28:58.476Z,101313.54
2018-11-28T22:33:02.134Z,101327.48
2018-11-28T22:37:05.758Z,101330.33
2018-11-28T22:41:09.364Z,101335.49
2018-11-28T22:45:14.389Z,101338.03
2018-11-28T22:49:17.924Z,101342.27
2018-11-28T22:53:21.919Z,101339.16
2018-11-28T22:57:25.723Z,101342.45
2018-11-28T23:01:40.399Z,101343.62
2018-11-28T23:05:51.076Z,101333.05
2018-11-28T23:09:54.620Z,101334.63
2018-11-28T23:13:58.175Z,101334.00
2018-11-28T23:18:01.705Z,101329.52
2018-11-28T23:22:05.288Z,101330.19
2018-11-28T23:26:08.954Z,101330.88
2018-11-28T23:30:17.388Z,101334.81
2018-11-28T23:34:20.943Z,101341.57
2018-11-28T23:38:24.438Z,101338.23
2018-11-28T23:42:27.979Z,101333.17
2018-11-28T23:46:31.512Z,101347.34
2018-11-28T23:50:35.040Z,101343.38
2018-11-28T23:54:38.604Z,101342.45
2018-11-28T23:58:42.238Z,101347.30
